createdAt,value
2022-08-23T00:01:31.850Z,20.20
2022-08-23T00:04:02.894Z,20.30
2022-08-23T00:06:31.558Z,20.40
2022-08-23T00:09:01.538Z,20.30
2022-08-23T00:11:32.421Z,20.20
2022-08-23T00:14:06.352Z,20.20
2022-08-23T00:16:35.342Z,20.00
2022-08-23T00:19:04.411Z,20.00
2022-08-23T00:21:32.776Z,19.90
2022-08-23T00:24:02.345Z,19.80
2022-08-23T00:26:56.208Z,19.70
2022-08-23T00:29:26.646Z,19.70
2022-08-23T00:31:55.482Z,19.70
2022-08-23T00:34:27.273Z,19.60
2022-08-23T00:36:57.948Z,19.60
2022-08-23T00:39:27.786Z,19.50
2022-08-23T00:42:01.205Z,19.60
2022-08-23T00:44:52.053Z,19.50
2022-08-23T00:47:41.794Z,19.50
2022-08-23T00:50:24.168Z,19.30
2022-08-23T00:53:02.695Z,19.20
2022-08-23T00:55:32.741Z,19.30
2022-08-23T00:58:01.954Z,19.30
2022-08-23T01:00:32.254Z,19.20
2022-08-23T01:03:00.881Z,19.20
2022-08-23T01:05:39.602Z,19.20
2022-08-23T01:08:07.961Z,19.20
2022-08-23T01:10:43.142Z,19.20
2022-08-23T01:13:16.708Z,19.10
2022-08-23T01:15:48.447Z,19.00
2022-08-23T01:18:21.039Z,18.90
2022-08-23T01:20:55.232Z,18.90
2022-08-23T01:23:32.906Z,18.90
2022-08-23T01:26:02.049Z,18.90
2022-08-23T01:28:30.545Z,18.90
2022-08-23T01:30:59.009Z,18.90
2022-08-23T01:33:27.815Z,18.90
2022-08-23T01:35:58.320Z,18.90
2022-08-23T01:38:30.434Z,18.90
2022-08-23T01:41:01.749Z,18.90
2022-08-23T01:43:30.377Z,18.90
2022-08-23T01:45:58.687Z,18.80
2022-08-23T01:48:28.388Z,18.60
2022-08-23T01:50:57.506Z,18.70
2022-08-23T01:53:25.980Z,18.70
2022-08-23T01:56:38.061Z,18.60
2022-08-23T01:59:11.115Z,18.70
2022-08-23T02:01:48.862Z,18.60
2022-08-23T02:04:20.729Z,18.70
2022-08-23T02:06:49.241Z,18.60
2022-08-23T02:12:01.345Z,18.30
2022-08-23T02:14:31.220Z,18.20
2022-08-23T02:17:04.376Z,18.30
2022-08-23T02:19:34.986Z,18.30
2022-08-23T02:22:05.057Z,18.30
2022-08-23T02:24:34.392Z,18.20
2022-08-23T02:27:09.480Z,18.10
2022-08-23T02:29:41.476Z,18.00
2022-08-23T02:32:17.931Z,18.10
2022-08-23T02:34:51.326Z,18.10
2022-08-23T02:37:38.360Z,18.10
2022-08-23T02:40:08.373Z,18.00
2022-08-23T02:42:41.951Z,18.00
2022-08-23T02:45:13.325Z,18.00
2022-08-23T02:47:48.052Z,18.10
2022-08-23T02:50:28.705Z,18.10
2022-08-23T02:52:59.020Z,17.90
2022-08-23T02:55:29.187Z,17.90
2022-08-23T02:57:59.781Z,18.00
2022-08-23T03:00:28.799Z,18.00
2022-08-23T03:02:58.273Z,18.00
2022-08-23T03:05:27.890Z,17.80
2022-08-23T03:07:56.345Z,17.80
2022-08-23T03:10:25.218Z,17.80
2022-08-23T03:13:01.047Z,17.90
2022-08-23T03:15:29.822Z,17.90
2022-08-23T03:17:58.355Z,17.80
2022-08-23T03:20:27.290Z,17.70
2022-08-23T03:22:55.939Z,17.70
2022-08-23T03:25:26.281Z,17.70
2022-08-23T03:28:07.341Z,17.70
2022-08-23T03:30:39.016Z,17.70
2022-08-23T03:33:11.106Z,17.70
2022-08-23T03:35:39.781Z,17.70
2022-08-23T03:38:10.923Z,17.70
2022-08-23T03:40:40.699Z,17.70
2022-08-23T03:43:11.429Z,17.70
2022-08-23T03:45:39.872Z,17.60
2022-08-23T03:48:09.897Z,17.60
2022-08-23T03:50:38.896Z,17.70
2022-08-23T03:55:42.459Z,17.60
2022-08-23T03:58:23.562Z,17.60
2022-08-23T04:00:51.906Z,17.50
2022-08-23T04:03:20.718Z,17.40
2022-08-23T04:06:02.449Z,17.40
2022-08-23T04:08:34.109Z,17.40
2022-08-23T04:11:05.721Z,17.40
2022-08-23T04:13:37.393Z,17.40
2022-08-23T04:16:07.453Z,17.30
2022-08-23T04:21:11.007Z,17.30
2022-08-23T04:23:39.955Z,17.30
2022-08-23T04:26:09.777Z,17.10
2022-08-23T04:28:40.703Z,17.10
2022-08-23T04:31:09.202Z,17.10
2022-08-23T04:33:40.608Z,17.10
2022-08-23T04:36:12.959Z,17.10
2022-08-23T04:38:41.357Z,17.10
2022-08-23T04:41:29.132Z,17.00
2022-08-23T04:44:00.391Z,16.90
2022-08-23T04:46:30.959Z,16.90
2022-08-23T04:49:02.418Z,17.00
2022-08-23T04:51:33.711Z,17.00
2022-08-23T04:54:02.070Z,17.00
2022-08-23T04:56:33.798Z,17.20
2022-08-23T04:59:04.132Z,17.20
2022-08-23T05:01:34.808Z,17.20
2022-08-23T05:04:04.434Z,17.30
2022-08-23T05:06:35.029Z,17.50
2022-08-23T05:09:04.415Z,17.70
2022-08-23T05:11:34.602Z,17.90
2022-08-23T05:14:04.937Z,17.30
2022-08-23T05:16:33.528Z,17.80
2022-08-23T05:19:07.361Z,18.10
2022-08-23T05:21:42.257Z,18.30
2022-08-23T05:24:13.538Z,18.30
2022-08-23T05:26:44.197Z,18.30
2022-08-23T05:29:17.552Z,18.60
2022-08-23T05:31:50.437Z,18.70
2022-08-23T05:34:22.867Z,18.70
2022-08-23T05:36:57.854Z,18.70
2022-08-23T05:39:44.120Z,18.90
2022-08-23T05:42:15.223Z,19.00
2022-08-23T05:44:46.555Z,19.20
2022-08-23T05:47:17.373Z,19.20
2022-08-23T05:50:05.989Z,19.10
2022-08-23T05:52:38.079Z,19.20
2022-08-23T05:55:07.356Z,19.20
2022-08-23T05:57:41.870Z,19.30
2022-08-23T06:00:15.187Z,19.50
2022-08-23T06:02:55.156Z,19.60
2022-08-23T06:05:23.995Z,19.80
2022-08-23T06:07:52.944Z,20.10
2022-08-23T06:10:24.625Z,20.30
2022-08-23T06:13:05.828Z,20.40
2022-08-23T06:15:46.165Z,20.50
2022-08-23T06:18:14.449Z,20.50
2022-08-23T06:20:43.771Z,20.50
2022-08-23T06:23:18.837Z,20.40
2022-08-23T06:25:52.359Z,20.60
2022-08-23T06:28:25.853Z,20.80
2022-08-23T06:30:58.724Z,21.00
2022-08-23T06:33:32.145Z,21.10
2022-08-23T06:36:30.143Z,21.10
2022-08-23T06:39:16.351Z,21.30
2022-08-23T06:42:22.226Z,21.70
2022-08-23T06:45:02.344Z,21.90
2022-08-23T06:47:45.188Z,21.90
2022-08-23T06:50:13.912Z,22.20
2022-08-23T06:53:14.504Z,22.60
2022-08-23T06:55:59.375Z,23.00
2022-08-23T06:58:49.148Z,23.00
2022-08-23T07:01:47.487Z,23.10
2022-08-23T07:04:27.123Z,23.10
2022-08-23T07:07:15.018Z,23.30
2022-08-23T07:09:43.485Z,23.20
2022-08-23T07:12:12.771Z,23.30
2022-08-23T07:14:44.218Z,23.40
2022-08-23T07:17:14.518Z,23.60
2022-08-23T07:19:44.915Z,23.40
2022-08-23T07:22:15.727Z,23.40
2022-08-23T07:24:44.325Z,23.50
2022-08-23T07:27:12.846Z,23.10
2022-08-23T07:30:02.547Z,23.20
2022-08-23T07:32:31.970Z,23.20
2022-08-23T07:35:08.813Z,23.30
2022-08-23T07:37:42.445Z,23.30
2022-08-23T07:40:13.291Z,23.30
2022-08-23T07:42:50.965Z,23.50
2022-08-23T07:45:23.072Z,23.60
2022-08-23T07:47:55.867Z,23.70
2022-08-23T07:50:30.602Z,23.90
2022-08-23T07:53:03.461Z,24.00
2022-08-23T07:55:34.715Z,24.10
2022-08-23T07:58:32.009Z,24.20
2022-08-23T08:01:23.187Z,24.40
2022-08-23T08:03:55.863Z,24.30
2022-08-23T08:06:35.632Z,24.00
2022-08-23T08:09:05.976Z,23.40
2022-08-23T08:11:35.933Z,23.70
2022-08-23T08:14:08.271Z,23.90
2022-08-23T08:16:42.995Z,24.20
2022-08-23T08:19:16.985Z,24.20
2022-08-23T08:22:07.588Z,24.20
2022-08-23T08:24:56.038Z,24.30
2022-08-23T08:27:24.544Z,24.60
2022-08-23T08:29:52.839Z,24.70
2022-08-23T08:32:21.436Z,24.90
2022-08-23T08:34:49.685Z,25.00
2022-08-23T08:37:19.754Z,24.90
2022-08-23T08:39:48.273Z,25.20
2022-08-23T08:42:35.774Z,24.70
2022-08-23T08:45:11.445Z,24.90
2022-08-23T08:47:50.139Z,25.00
2022-08-23T08:50:26.594Z,24.90
2022-08-23T08:53:05.610Z,24.60
2022-08-23T08:56:20.812Z,24.40
2022-08-23T08:58:56.926Z,24.50
2022-08-23T09:01:27.008Z,24.80
2022-08-23T09:03:57.760Z,25.20
2022-08-23T09:06:35.275Z,25.70
2022-08-23T09:09:25.012Z,25.70
2022-08-23T09:12:06.302Z,26.00
2022-08-23T09:14:58.123Z,25.90
2022-08-23T09:17:37.119Z,26.10
2022-08-23T09:20:07.703Z,25.90
2022-08-23T09:22:41.045Z,25.80
2022-08-23T09:25:22.915Z,25.90
2022-08-23T09:28:02.524Z,25.80
2022-08-23T09:30:50.079Z,26.00
2022-08-23T09:33:21.400Z,26.10
2022-08-23T09:36:16.199Z,26.10
2022-08-23T09:38:54.762Z,26.10
2022-08-23T09:41:28.132Z,26.00
2022-08-23T09:44:02.341Z,25.80
2022-08-23T09:46:36.247Z,25.80
2022-08-23T09:49:26.042Z,25.40
2022-08-23T09:52:01.406Z,26.10
2022-08-23T09:54:34.673Z,26.10
2022-08-23T09:57:10.563Z,26.30
2022-08-23T09:59:43.378Z,26.50
2022-08-23T10:02:27.474Z,26.60
2022-08-23T10:05:01.889Z,26.70
2022-08-23T10:07:38.705Z,26.80
2022-08-23T10:10:24.700Z,26.90
2022-08-23T10:12:59.063Z,26.80
2022-08-23T10:15:52.298Z,27.30
2022-08-23T10:18:34.749Z,27.20
2022-08-23T10:21:08.310Z,27.30
2022-08-23T10:23:48.290Z,27.60
2022-08-23T10:26:26.305Z,27.90
2022-08-23T10:29:21.665Z,28.30
2022-08-23T10:32:00.606Z,28.20
2022-08-23T10:34:48.376Z,28.10
2022-08-23T10:37:44.365Z,27.60
2022-08-23T10:40:21.052Z,27.70
2022-08-23T10:42:59.837Z,27.70
2022-08-23T10:45:32.670Z,27.40
2022-08-23T10:48:21.332Z,27.00
2022-08-23T10:50:56.146Z,27.10
2022-08-23T10:53:35.093Z,27.50
2022-08-23T10:56:08.145Z,28.10
2022-08-23T10:58:48.591Z,28.10
2022-08-23T11:01:23.048Z,27.40
2022-08-23T11:04:03.176Z,27.60
2022-08-23T11:06:51.164Z,27.40
2022-08-23T11:09:54.737Z,27.40
2022-08-23T11:12:29.150Z,28.00
2022-08-23T11:15:20.690Z,28.60
2022-08-23T11:18:02.824Z,28.70
2022-08-23T11:21:09.785Z,28.50
2022-08-23T11:23:55.508Z,28.20
2022-08-23T11:27:07.683Z,28.30
2022-08-23T11:29:43.701Z,28.90
2022-08-23T11:32:43.751Z,29.00
2022-08-23T11:35:36.908Z,28.70
2022-08-23T11:38:10.620Z,29.10
2022-08-23T11:40:59.970Z,29.30
2022-08-23T11:43:38.847Z,29.40
2022-08-23T11:46:27.760Z,28.90
2022-08-23T11:49:54.561Z,29.00
2022-08-23T11:52:53.645Z,28.70
2022-08-23T11:55:31.706Z,28.90
2022-08-23T11:58:21.041Z,29.40
2022-08-23T12:01:07.810Z,29.50
2022-08-23T12:03:52.844Z,29.60
2022-08-23T12:06:42.591Z,29.80
2022-08-23T12:09:56.104Z,29.80
2022-08-23T12:12:39.250Z,29.30
2022-08-23T12:15:13.909Z,29.60
2022-08-23T12:18:14.305Z,29.40
2022-08-23T12:20:48.185Z,29.80
2022-08-23T12:23:21.914Z,30.00
2022-08-23T12:26:04.366Z,29.80
2022-08-23T12:28:48.122Z,29.40
2022-08-23T12:31:27.446Z,30.00
2022-08-23T12:34:18.776Z,30.20
2022-08-23T12:36:56.774Z,30.40
2022-08-23T12:39:30.449Z,30.20
2022-08-23T12:42:07.276Z,30.30
2022-08-23T12:44:35.570Z,29.90
2022-08-23T12:47:17.294Z,30.20
2022-08-23T12:49:57.006Z,30.50
2022-08-23T12:52:28.495Z,29.70
2022-08-23T12:54:58.135Z,29.30
2022-08-23T12:57:39.387Z,29.40
2022-08-23T13:00:19.091Z,29.50
2022-08-23T13:02:53.975Z,29.70
2022-08-23T13:05:31.581Z,29.90
2022-08-23T13:08:01.448Z,30.40
2022-08-23T13:10:30.134Z,30.00
2022-08-23T13:13:00.744Z,30.40
2022-08-23T13:15:45.764Z,30.90
2022-08-23T13:18:29.776Z,31.00
2022-08-23T13:21:17.601Z,30.90
2022-08-23T13:23:47.938Z,30.80
2022-08-23T13:26:29.989Z,30.70
2022-08-23T13:29:06.322Z,31.20
2022-08-23T13:32:03.353Z,31.30
2022-08-23T13:34:48.981Z,31.00
2022-08-23T13:37:22.693Z,30.50
2022-08-23T13:39:54.337Z,30.60
2022-08-23T13:42:36.004Z,30.40
2022-08-23T13:45:16.710Z,30.20
2022-08-23T13:47:49.691Z,30.70
2022-08-23T13:50:23.703Z,30.80
2022-08-23T13:53:13.391Z,30.70
2022-08-23T13:55:44.714Z,30.40
2022-08-23T13:58:15.853Z,30.70
2022-08-23T14:00:45.928Z,31.10
2022-08-23T14:03:24.225Z,31.40
2022-08-23T14:05:56.618Z,31.30
2022-08-23T14:08:25.216Z,31.20
2022-08-23T14:10:53.767Z,31.20
2022-08-23T14:13:28.051Z,31.30
2022-08-23T14:21:39.565Z,30.90
2022-08-23T14:24:08.509Z,30.50
2022-08-23T14:26:36.845Z,30.60
2022-08-23T14:29:05.961Z,30.70
2022-08-23T14:31:35.622Z,30.80
2022-08-23T14:34:04.089Z,30.50
2022-08-23T14:36:32.649Z,31.00
2022-08-23T14:39:03.458Z,31.00
2022-08-23T14:41:33.226Z,31.10
2022-08-23T14:44:03.190Z,31.30
2022-08-23T14:46:36.521Z,31.30
2022-08-23T14:49:05.228Z,31.30
2022-08-23T14:51:37.949Z,31.00
2022-08-23T14:54:16.021Z,30.80
2022-08-23T14:56:48.745Z,30.90
2022-08-23T14:59:17.775Z,30.50
2022-08-23T15:01:50.557Z,30.50
2022-08-23T15:04:21.349Z,30.60
2022-08-23T15:09:40.467Z,31.00
2022-08-23T15:15:02.070Z,31.30
2022-08-23T15:17:36.873Z,31.40
2022-08-23T15:20:07.247Z,31.40
2022-08-23T15:22:39.989Z,31.20
2022-08-23T15:25:15.580Z,31.20
2022-08-23T15:27:47.079Z,31.30
2022-08-23T15:30:17.557Z,31.50
2022-08-23T15:32:52.241Z,31.40
2022-08-23T15:35:21.726Z,31.50
2022-08-23T15:37:53.668Z,31.30
2022-08-23T15:40:22.447Z,30.90
2022-08-23T15:42:51.057Z,31.00
2022-08-23T15:45:19.543Z,30.90
2022-08-23T15:47:52.829Z,30.80
2022-08-23T15:50:23.052Z,30.70
2022-08-23T15:52:52.036Z,30.70
2022-08-23T15:55:20.918Z,30.80
2022-08-23T15:57:51.825Z,30.90
2022-08-23T16:00:24.408Z,31.00
2022-08-23T16:03:19.557Z,30.60
2022-08-23T16:05:47.993Z,30.40
2022-08-23T16:08:23.414Z,30.20
2022-08-23T16:10:54.909Z,30.00
2022-08-23T16:13:24.437Z,30.00
2022-08-23T16:15:53.132Z,30.00
2022-08-23T16:18:25.371Z,30.00
2022-08-23T16:20:54.684Z,30.00
2022-08-23T16:23:26.844Z,30.00
2022-08-23T16:26:00.783Z,29.90
2022-08-23T16:28:29.833Z,29.80
2022-08-23T16:30:58.206Z,29.70
2022-08-23T16:33:28.018Z,29.70
2022-08-23T16:35:56.634Z,29.70
2022-08-23T16:38:25.346Z,29.60
2022-08-23T16:40:54.069Z,29.60
2022-08-23T16:43:22.412Z,29.60
2022-08-23T16:45:51.651Z,29.70
2022-08-23T16:48:20.916Z,29.70
2022-08-23T16:50:52.119Z,29.70
2022-08-23T16:53:20.809Z,29.60
2022-08-23T16:55:49.545Z,29.50
2022-08-23T16:58:18.564Z,29.50
2022-08-23T17:00:47.411Z,29.50
2022-08-23T17:03:19.080Z,29.60
2022-08-23T17:05:48.042Z,29.50
2022-08-23T17:08:18.252Z,29.50
2022-08-23T17:13:17.382Z,29.50
2022-08-23T17:15:46.445Z,29.50
2022-08-23T17:18:15.381Z,29.40
2022-08-23T17:20:43.826Z,29.20
2022-08-23T17:23:13.858Z,28.50
2022-08-23T17:25:48.985Z,28.10
2022-08-23T17:28:19.429Z,27.60
2022-08-23T17:30:48.167Z,28.60
2022-08-23T17:33:16.988Z,27.40
2022-08-23T17:35:46.587Z,27.40
2022-08-23T17:38:15.591Z,27.20
2022-08-23T17:40:45.861Z,27.10
2022-08-23T17:43:14.376Z,27.00
2022-08-23T17:45:46.444Z,27.00
2022-08-23T17:48:16.926Z,26.90
2022-08-23T17:50:46.372Z,26.80
2022-08-23T17:53:18.693Z,26.70
2022-08-23T17:55:49.313Z,26.60
2022-08-23T17:58:21.157Z,26.50
2022-08-23T18:00:52.977Z,26.50
2022-08-23T18:03:22.787Z,26.40
2022-08-23T18:05:53.054Z,26.40
2022-08-23T18:08:22.027Z,26.40
2022-08-23T18:10:52.626Z,26.40
2022-08-23T18:13:22.317Z,26.30
2022-08-23T18:15:53.956Z,24.90
2022-08-23T18:18:23.031Z,26.00
2022-08-23T18:20:52.201Z,25.90
2022-08-23T18:23:21.825Z,25.80
2022-08-23T18:25:53.535Z,25.70
2022-08-23T18:28:25.494Z,25.70
2022-08-23T18:30:56.352Z,25.50
2022-08-23T18:36:16.193Z,25.40
2022-08-23T18:38:45.177Z,25.30
2022-08-23T18:41:16.293Z,25.30
2022-08-23T18:43:49.929Z,25.20
2022-08-23T18:46:18.449Z,25.10
2022-08-23T18:48:53.413Z,25.00
2022-08-23T18:51:23.472Z,24.90
2022-08-23T18:53:51.892Z,24.80
2022-08-23T18:56:23.592Z,24.60
2022-08-23T18:58:52.690Z,24.60
2022-08-23T19:01:23.971Z,24.50
2022-08-23T19:03:54.719Z,24.50
2022-08-23T19:06:23.962Z,24.40
2022-08-23T19:08:55.844Z,24.40
2022-08-23T19:11:26.152Z,24.40
2022-08-23T19:13:55.483Z,24.40
2022-08-23T19:16:24.358Z,24.20
2022-08-23T19:18:53.128Z,24.20
2022-08-23T19:21:26.130Z,24.20
2022-08-23T19:23:56.732Z,24.20
2022-08-23T19:26:32.109Z,24.00
2022-08-23T19:29:01.594Z,24.00
2022-08-23T19:31:36.086Z,23.90
2022-08-23T19:34:07.143Z,23.90
2022-08-23T19:36:47.578Z,23.80
2022-08-23T19:39:19.709Z,23.80
2022-08-23T19:41:50.037Z,23.80
2022-08-23T19:44:21.454Z,23.70
2022-08-23T19:46:51.220Z,23.60
2022-08-23T19:49:21.994Z,23.60
2022-08-23T19:51:52.205Z,23.60
2022-08-23T19:54:20.998Z,23.40
2022-08-23T19:56:56.495Z,23.50
2022-08-23T19:59:30.631Z,23.50
2022-08-23T20:02:00.194Z,23.50
2022-08-23T20:04:33.090Z,23.60
2022-08-23T20:07:03.060Z,23.30
2022-08-23T20:09:36.564Z,23.30
2022-08-23T20:12:07.604Z,23.20
2022-08-23T20:14:36.437Z,23.20
2022-08-23T20:17:07.546Z,23.20
2022-08-23T20:19:36.698Z,23.30
2022-08-23T20:22:22.878Z,23.30
2022-08-23T20:24:52.844Z,23.20
2022-08-23T20:27:30.618Z,23.20
2022-08-23T20:30:02.454Z,23.20
2022-08-23T20:32:31.836Z,23.20
2022-08-23T20:35:00.550Z,23.10
2022-08-23T20:37:29.774Z,22.90
2022-08-23T20:39:58.648Z,22.90
2022-08-23T20:44:58.079Z,22.90
2022-08-23T20:47:26.571Z,22.80
2022-08-23T20:49:55.123Z,22.80
2022-08-23T20:52:23.495Z,22.80
2022-08-23T20:54:52.317Z,22.60
2022-08-23T20:57:23.740Z,22.70
2022-08-23T21:00:02.622Z,22.50
2022-08-23T21:02:41.107Z,22.50
2022-08-23T21:07:43.833Z,22.50
2022-08-23T21:10:16.073Z,22.60
2022-08-23T21:15:18.840Z,22.60
2022-08-23T21:17:50.525Z,22.70
2022-08-23T21:20:19.434Z,22.60
2022-08-23T21:22:48.112Z,22.60
2022-08-23T21:25:17.844Z,22.60
2022-08-23T21:27:46.390Z,22.60
2022-08-23T21:30:17.457Z,22.40
2022-08-23T21:32:48.475Z,22.30
2022-08-23T21:35:17.235Z,22.30
2022-08-23T21:37:45.759Z,22.20
2022-08-23T21:40:18.440Z,22.20
2022-08-23T21:42:48.318Z,22.30
2022-08-23T21:45:18.189Z,22.40
2022-08-23T21:47:46.820Z,22.40
2022-08-23T21:50:17.680Z,22.50
2022-08-23T21:52:56.224Z,22.50
2022-08-23T21:55:35.969Z,22.40
2022-08-23T21:58:04.782Z,22.30
2022-08-23T22:00:37.318Z,22.40
2022-08-23T22:03:06.545Z,22.70
2022-08-23T22:05:40.434Z,22.70
2022-08-23T22:08:09.096Z,22.50
2022-08-23T22:10:38.247Z,22.40
2022-08-23T22:13:13.418Z,22.30
2022-08-23T22:15:43.407Z,22.20
2022-08-23T22:18:13.974Z,22.00
2022-08-23T22:20:42.434Z,21.80
2022-08-23T22:23:11.440Z,21.50
2022-08-23T22:25:40.321Z,21.50
2022-08-23T22:28:17.821Z,21.50
2022-08-23T22:30:52.943Z,21.50
2022-08-23T22:33:24.745Z,21.20
2022-08-23T22:35:56.367Z,21.20
2022-08-23T22:38:25.602Z,21.10
2022-08-23T22:40:58.015Z,21.10
2022-08-23T22:43:30.575Z,21.00
2022-08-23T22:46:03.409Z,21.00
2022-08-23T22:48:34.743Z,21.10
2022-08-23T22:51:10.952Z,21.40
2022-08-23T22:53:48.432Z,21.40
2022-08-23T22:56:27.578Z,21.40
2022-08-23T22:58:59.582Z,21.40
2022-08-23T23:01:32.457Z,21.40
2022-08-23T23:04:11.728Z,21.40
2022-08-23T23:06:43.733Z,21.30
2022-08-23T23:09:17.825Z,21.10
2022-08-23T23:11:46.731Z,20.90
2022-08-23T23:14:18.486Z,20.80
2022-08-23T23:16:50.523Z,20.70
2022-08-23T23:19:41.995Z,20.60
2022-08-23T23:22:14.340Z,20.50
2022-08-23T23:24:42.693Z,20.40
2022-08-23T23:27:13.400Z,20.40
2022-08-23T23:29:46.122Z,20.50
2022-08-23T23:32:18.264Z,20.70
2022-08-23T23:34:51.291Z,20.80
2022-08-23T23:37:22.125Z,20.80
2022-08-23T23:39:53.862Z,20.80
2022-08-23T23:44:53.695Z,20.50
2022-08-23T23:47:25.967Z,20.50
2022-08-23T23:49:56.982Z,20.50
2022-08-23T23:52:25.598Z,20.40
2022-08-23T23:54:53.882Z,20.40
2022-08-23T23:57:23.385Z,20.40
2022-08-23T23:59:55.222Z,20.40
